sensor_id;sensor_type;location;lat;lon;timestamp;pressure;altitude;pressure_sealevel;temperature;humidity
10470;BME280;5282;47.052;15.458;2023-05-03T00:00:38;98036.72;;;10.54;100.00
10470;BME280;5282;47.052;15.458;2023-05-03T00:03:07;98034.78;;;10.64;100.00
10470;BME280;5282;47.052;15.458;2023-05-03T00:05:38;98025.88;;;10.64;100.00
10470;BME280;5282;47.052;15.458;2023-05-03T00:08:08;98031.56;;;10.61;100.00
10470;BME280;5282;47.052;15.458;2023-05-03T00:10:36;98030.09;;;10.67;100.00
10470;BME280;5282;47.052;15.458;2023-05-03T00:13:04;98025.25;;;10.70;100.00
10470;BME280;5282;47.052;15.458;2023-05-03T00:15:40;98027.41;;;10.67;100.00
10470;BME280;5282;47.052;15.458;2023-05-03T00:18:13;98022.84;;;10.67;100.00
10470;BME280;5282;47.052;15.458;2023-05-03T00:20:44;98018.47;;;10.66;100.00
10470;BME280;5282;47.052;15.458;2023-05-03T00:23:14;98026.25;;;10.69;100.00
10470;BME280;5282;47.052;15.458;2023-05-03T00:25:42;98018.94;;;10.61;100.00
10470;BME280;5282;47.052;15.458;2023-05-03T00:28:11;98030.72;;;10.42;100.00
10470;BME280;5282;47.052;15.458;2023-05-03T00:30:39;98029.91;;;10.42;100.00
10470;BME280;5282;47.052;15.458;2023-05-03T00:33:09;98023.41;;;10.34;100.00
10470;BME280;5282;47.052;15.458;2023-05-03T00:35:43;98022.56;;;10.52;100.00
10470;BME280;5282;47.052;15.458;2023-05-03T00:38:15;98030.19;;;10.57;100.00
10470;BME280;5282;47.052;15.458;2023-05-03T00:40:52;98024.19;;;10.63;100.00
10470;BME280;5282;47.052;15.458;2023-05-03T00:43:27;98025.66;;;10.57;100.00
10470;BME280;5282;47.052;15.458;2023-05-03T00:45:57;98025.34;;;10.42;100.00
10470;BME280;5282;47.052;15.458;2023-05-03T00:48:27;98035.00;;;10.35;100.00
10470;BME280;5282;47.052;15.458;2023-05-03T00:51:01;98040.16;;;10.28;100.00
10470;BME280;5282;47.052;15.458;2023-05-03T00:53:30;98041.66;;;10.41;100.00
10470;BME280;5282;47.052;15.458;2023-05-03T00:56:02;98039.41;;;10.36;100.00
10470;BME280;5282;47.052;15.458;2023-05-03T00:58:30;98035.84;;;10.35;100.00
10470;BME280;5282;47.052;15.458;2023-05-03T01:01:01;98042.16;;;10.26;100.00
10470;BME280;5282;47.052;15.458;2023-05-03T01:03:32;98049.00;;;10.21;100.00
10470;BME280;5282;47.052;15.458;2023-05-03T01:06:09;98047.63;;;10.16;100.00
10470;BME280;5282;47.052;15.458;2023-05-03T01:08:41;98046.16;;;10.22;100.00
10470;BME280;5282;47.052;15.458;2023-05-03T01:11:15;98033.53;;;10.23;100.00
10470;BME280;5282;47.052;15.458;2023-05-03T01:13:51;98035.16;;;10.15;100.00
10470;BME280;5282;47.052;15.458;2023-05-03T01:16:25;98035.69;;;10.19;100.00
10470;BME280;5282;47.052;15.458;2023-05-03T01:18:59;98034.00;;;10.36;100.00
10470;BME280;5282;47.052;15.458;2023-05-03T01:21:32;98040.22;;;10.18;100.00
10470;BME280;5282;47.052;15.458;2023-05-03T01:24:03;98042.84;;;10.10;100.00
10470;BME280;5282;47.052;15.458;2023-05-03T01:26:34;98033.59;;;10.13;100.00
10470;BME280;5282;47.052;15.458;2023-05-03T01:29:02;98028.09;;;10.14;100.00
10470;BME280;5282;47.052;15.458;2023-05-03T01:31:35;98029.16;;;10.22;100.00
10470;BME280;5282;47.052;15.458;2023-05-03T01:34:16;98035.19;;;10.33;100.00
10470;BME280;5282;47.052;15.458;2023-05-03T01:36:44;98023.50;;;10.43;100.00
10470;BME280;5282;47.052;15.458;2023-05-03T01:39:15;98017.59;;;10.39;100.00
10470;BME280;5282;47.052;15.458;2023-05-03T01:41:45;98021.97;;;10.40;100.00
10470;BME280;5282;47.052;15.458;2023-05-03T01:44:15;98015.97;;;10.46;100.00
10470;BME280;5282;47.052;15.458;2023-05-03T01:46:43;98015.50;;;10.51;100.00
10470;BME280;5282;47.052;15.458;2023-05-03T01:49:13;98016.00;;;10.37;100.00
10470;BME280;5282;47.052;15.458;2023-05-03T01:51:40;98022.41;;;10.17;100.00
10470;BME280;5282;47.052;15.458;2023-05-03T01:54:07;98026.41;;;10.13;100.00
10470;BME280;5282;47.052;15.458;2023-05-03T01:56:37;98026.53;;;10.30;100.00
10470;BME280;5282;47.052;15.458;2023-05-03T01:59:05;98021.13;;;10.40;100.00
10470;BME280;5282;47.052;15.458;2023-05-03T02:01:32;98025.16;;;10.26;100.00
10470;BME280;5282;47.052;15.458;2023-05-03T02:03:59;98022.78;;;10.23;100.00
10470;BME280;5282;47.052;15.458;2023-05-03T02:06:26;98021.38;;;10.37;100.00
10470;BME280;5282;47.052;15.458;2023-05-03T02:08:54;98026.53;;;10.30;100.00
10470;BME280;5282;47.052;15.458;2023-05-03T02:11:22;98019.50;;;10.29;100.00
10470;BME280;5282;47.052;15.458;2023-05-03T02:13:58;98016.69;;;10.21;100.00
10470;BME280;5282;47.052;15.458;2023-05-03T02:16:27;98023.84;;;10.30;100.00
10470;BME280;5282;47.052;15.458;2023-05-03T02:18:54;98012.94;;;10.31;100.00
10470;BME280;5282;47.052;15.458;2023-05-03T02:21:24;98017.41;;;10.23;100.00
10470;BME280;5282;47.052;15.458;2023-05-03T02:23:54;98012.56;;;10.26;100.00
10470;BME280;5282;47.052;15.458;2023-05-03T02:26:21;98013.53;;;10.25;100.00
10470;BME280;5282;47.052;15.458;2023-05-03T02:28:48;98015.78;;;10.30;100.00
10470;BME280;5282;47.052;15.458;2023-05-03T02:31:15;98003.88;;;10.32;100.00
10470;BME280;5282;47.052;15.458;2023-05-03T02:33:43;98009.09;;;10.34;100.00
10470;BME280;5282;47.052;15.458;2023-05-03T02:36:10;98008.53;;;10.40;100.00
10470;BME280;5282;47.052;15.458;2023-05-03T02:38:37;98006.97;;;10.38;100.00
10470;BME280;5282;47.052;15.458;2023-05-03T02:41:04;98000.44;;;10.40;100.00
10470;BME280;5282;47.052;15.458;2023-05-03T02:43:33;98002.72;;;10.35;100.00
10470;BME280;5282;47.052;15.458;2023-05-03T02:46:00;97988.50;;;10.43;100.00
10470;BME280;5282;47.052;15.458;2023-05-03T02:48:27;97992.94;;;10.34;100.00
10470;BME280;5282;47.052;15.458;2023-05-03T02:50:56;97996.91;;;10.40;100.00
10470;BME280;5282;47.052;15.458;2023-05-03T02:53:22;97996.50;;;10.34;100.00
10470;BME280;5282;47.052;15.458;2023-05-03T02:55:49;97995.34;;;10.37;100.00
10470;BME280;5282;47.052;15.458;2023-05-03T02:58:17;97994.38;;;10.38;100.00
10470;BME280;5282;47.052;15.458;2023-05-03T03:00:44;97989.50;;;10.24;100.00
10470;BME280;5282;47.052;15.458;2023-05-03T03:03:11;97997.41;;;10.25;100.00
10470;BME280;5282;47.052;15.458;2023-05-03T03:05:38;97999.66;;;10.12;100.00
10470;BME280;5282;47.052;15.458;2023-05-03T03:08:06;98002.53;;;10.18;100.00
10470;BME280;5282;47.052;15.458;2023-05-03T03:10:33;97991.72;;;10.28;100.00
10470;BME280;5282;47.052;15.458;2023-05-03T03:13:03;97997.97;;;10.29;100.00
10470;BME280;5282;47.052;15.458;2023-05-03T03:15:30;97996.72;;;10.23;100.00
10470;BME280;5282;47.052;15.458;2023-05-03T03:17:57;98004.25;;;10.19;100.00
10470;BME280;5282;47.052;15.458;2023-05-03T03:20:24;98004.94;;;10.22;100.00
10470;BME280;5282;47.052;15.458;2023-05-03T03:22:54;98004.25;;;10.19;100.00
10470;BME280;5282;47.052;15.458;2023-05-03T03:25:22;98010.50;;;10.20;100.00
10470;BME280;5282;47.052;15.458;2023-05-03T03:27:49;98003.72;;;10.16;100.00
10470;BME280;5282;47.052;15.458;2023-05-03T03:30:16;98000.72;;;10.19;100.00
10470;BME280;5282;47.052;15.458;2023-05-03T03:32:43;98006.28;;;10.17;100.00
10470;BME280;5282;47.052;15.458;2023-05-03T03:35:10;98005.94;;;10.21;100.00
10470;BME280;5282;47.052;15.458;2023-05-03T03:37:37;98003.88;;;10.14;100.00
10470;BME280;5282;47.052;15.458;2023-05-03T03:40:05;98015.34;;;10.16;100.00
10470;BME280;5282;47.052;15.458;2023-05-03T03:42:35;98015.47;;;10.15;100.00
10470;BME280;5282;47.052;15.458;2023-05-03T03:45:03;98009.25;;;10.14;100.00
10470;BME280;5282;47.052;15.458;2023-05-03T03:47:30;98012.47;;;10.18;100.00
10470;BME280;5282;47.052;15.458;2023-05-03T03:49:59;98004.94;;;10.22;100.00
10470;BME280;5282;47.052;15.458;2023-05-03T03:52:28;98006.56;;;10.14;100.00
10470;BME280;5282;47.052;15.458;2023-05-03T03:54:56;97999.56;;;10.22;100.00
10470;BME280;5282;47.052;15.458;2023-05-03T03:57:23;98005.47;;;10.07;100.00
10470;BME280;5282;47.052;15.458;2023-05-03T03:59:52;98014.34;;;10.17;100.00
10470;BME280;5282;47.052;15.458;2023-05-03T04:02:19;98011.72;;;10.08;100.00
10470;BME280;5282;47.052;15.458;2023-05-03T04:04:46;98019.31;;;10.12;100.00
10470;BME280;5282;47.052;15.458;2023-05-03T04:07:13;98026.09;;;10.16;100.00
10470;BME280;5282;47.052;15.458;2023-05-03T04:09:40;98021.00;;;10.13;100.00
10470;BME280;5282;47.052;15.458;2023-05-03T04:12:08;98022.94;;;10.21;100.00
10470;BME280;5282;47.052;15.458;2023-05-03T04:14:34;98020.03;;;10.14;100.00
10470;BME280;5282;47.052;15.458;2023-05-03T04:17:03;98029.78;;;10.15;100.00
10470;BME280;5282;47.052;15.458;2023-05-03T04:19:29;98024.78;;;10.21;100.00
10470;BME280;5282;47.052;15.458;2023-05-03T04:21:57;98035.53;;;10.21;100.00
10470;BME280;5282;47.052;15.458;2023-05-03T04:24:24;98026.63;;;10.20;100.00
10470;BME280;5282;47.052;15.458;2023-05-03T04:26:52;98031.09;;;10.29;100.00
10470;BME280;5282;47.052;15.458;2023-05-03T04:29:19;98032.94;;;10.29;100.00
10470;BME280;5282;47.052;15.458;2023-05-03T04:31:46;98042.25;;;10.34;100.00
10470;BME280;5282;47.052;15.458;2023-05-03T04:34:14;98040.41;;;10.35;100.00
10470;BME280;5282;47.052;15.458;2023-05-03T04:36:41;98035.00;;;10.35;100.00
10470;BME280;5282;47.052;15.458;2023-05-03T04:39:10;98037.69;;;10.35;100.00
10470;BME280;5282;47.052;15.458;2023-05-03T04:41:37;98037.09;;;10.41;100.00
10470;BME280;5282;47.052;15.458;2023-05-03T04:44:06;98035.28;;;10.42;100.00
10470;BME280;5282;47.052;15.458;2023-05-03T04:46:33;98037.81;;;10.43;100.00
10470;BME280;5282;47.052;15.458;2023-05-03T04:49:00;98032.50;;;10.52;100.00
10470;BME280;5282;47.052;15.458;2023-05-03T04:51:28;98038.91;;;10.51;100.00
10470;BME280;5282;47.052;15.458;2023-05-03T04:53:57;98040.59;;;10.52;100.00
10470;BME280;5282;47.052;15.458;2023-05-03T04:56:24;98034.34;;;10.51;100.00
10470;BME280;5282;47.052;15.458;2023-05-03T04:58:51;98034.72;;;10.56;100.00
10470;BME280;5282;47.052;15.458;2023-05-03T05:01:18;98041.94;;;10.56;100.00
10470;BME280;5282;47.052;15.458;2023-05-03T05:03:51;98042.47;;;10.59;100.00
10470;BME280;5282;47.052;15.458;2023-05-03T05:06:18;98041.66;;;10.59;100.00
10470;BME280;5282;47.052;15.458;2023-05-03T05:08:46;98046.09;;;10.68;100.00
10470;BME280;5282;47.052;15.458;2023-05-03T05:11:13;98042.25;;;10.71;100.00
10470;BME280;5282;47.052;15.458;2023-05-03T05:13:41;98050.88;;;10.74;100.00
10470;BME280;5282;47.052;15.458;2023-05-03T05:16:07;98039.75;;;10.77;100.00
10470;BME280;5282;47.052;15.458;2023-05-03T05:18:34;98035.25;;;10.78;100.00
10470;BME280;5282;47.052;15.458;2023-05-03T05:21:02;98042.84;;;10.83;100.00
10470;BME280;5282;47.052;15.458;2023-05-03T05:23:29;98049.94;;;10.84;100.00
10470;BME280;5282;47.052;15.458;2023-05-03T05:25:57;98049.97;;;10.92;100.00
10470;BME280;5282;47.052;15.458;2023-05-03T05:28:25;98039.59;;;10.97;100.00
10470;BME280;5282;47.052;15.458;2023-05-03T05:30:52;98038.69;;;10.88;100.00
10470;BME280;5282;47.052;15.458;2023-05-03T05:33:19;98030.28;;;10.91;100.00
10470;BME280;5282;47.052;15.458;2023-05-03T05:35:46;98028.25;;;10.93;100.00
10470;BME280;5282;47.052;15.458;2023-05-03T05:38:14;98026.44;;;10.94;100.00
10470;BME280;5282;47.052;15.458;2023-05-03T05:40:42;98027.00;;;11.06;100.00
10470;BME280;5282;47.052;15.458;2023-05-03T05:43:10;98030.13;;;11.19;100.00
10470;BME280;5282;47.052;15.458;2023-05-03T05:45:37;98033.88;;;11.26;100.00
10470;BME280;5282;47.052;15.458;2023-05-03T05:48:04;98033.88;;;11.26;100.00
10470;BME280;5282;47.052;15.458;2023-05-03T05:50:31;98032.75;;;11.37;100.00
10470;BME280;5282;47.052;15.458;2023-05-03T05:52:58;98035.63;;;11.36;100.00
10470;BME280;5282;47.052;15.458;2023-05-03T05:55:24;98035.63;;;11.36;100.00
10470;BME280;5282;47.052;15.458;2023-05-03T05:57:51;98038.03;;;11.47;100.00
10470;BME280;5282;47.052;15.458;2023-05-03T06:00:20;98047.47;;;11.51;100.00
10470;BME280;5282;47.052;15.458;2023-05-03T06:02:48;98045.66;;;11.60;100.00
10470;BME280;5282;47.052;15.458;2023-05-03T06:05:16;98037.75;;;11.58;100.00
10470;BME280;5282;47.052;15.458;2023-05-03T06:07:42;98032.03;;;11.62;100.00
10470;BME280;5282;47.052;15.458;2023-05-03T06:10:12;98036.09;;;11.74;100.00
10470;BME280;5282;47.052;15.458;2023-05-03T06:12:39;98043.38;;;11.73;100.00
10470;BME280;5282;47.052;15.458;2023-05-03T06:15:06;98038.19;;;11.88;100.00
10470;BME280;5282;47.052;15.458;2023-05-03T06:17:35;98043.59;;;11.88;100.00
10470;BME280;5282;47.052;15.458;2023-05-03T06:20:02;98042.47;;;11.99;100.00
10470;BME280;5282;47.052;15.458;2023-05-03T06:22:30;98044.63;;;11.96;100.00
10470;BME280;5282;47.052;15.458;2023-05-03T06:24:56;98048.41;;;12.11;100.00
10470;BME280;5282;47.052;15.458;2023-05-03T06:27:23;98054.34;;;12.23;100.00
10470;BME280;5282;47.052;15.458;2023-05-03T06:29:50;98052.16;;;12.27;100.00
10470;BME280;5282;47.052;15.458;2023-05-03T06:32:18;98056.88;;;12.33;100.00
10470;BME280;5282;47.052;15.458;2023-05-03T06:34:47;98060.78;;;12.39;100.00
10470;BME280;5282;47.052;15.458;2023-05-03T06:37:14;98059.44;;;12.43;100.00
10470;BME280;5282;47.052;15.458;2023-05-03T06:39:41;98056.41;;;12.54;100.00
10470;BME280;5282;47.052;15.458;2023-05-03T06:42:08;98051.00;;;12.46;100.00
10470;BME280;5282;47.052;15.458;2023-05-03T06:44:35;98055.06;;;12.42;100.00
10470;BME280;5282;47.052;15.458;2023-05-03T06:47:02;98060.13;;;12.53;100.00
10470;BME280;5282;47.052;15.458;2023-05-03T06:49:29;98058.09;;;12.63;100.00
10470;BME280;5282;47.052;15.458;2023-05-03T06:51:57;98062.34;;;12.74;100.00
10470;BME280;5282;47.052;15.458;2023-05-03T06:54:24;98062.84;;;12.78;100.00
10470;BME280;5282;47.052;15.458;2023-05-03T06:56:51;98060.31;;;12.85;100.00
10470;BME280;5282;47.052;15.458;2023-05-03T06:59:18;98061.16;;;12.77;100.00
10470;BME280;5282;47.052;15.458;2023-05-03T07:01:45;98070.94;;;12.86;100.00
10470;BME280;5282;47.052;15.458;2023-05-03T07:04:11;98067.22;;;12.95;100.00
10470;BME280;5282;47.052;15.458;2023-05-03T07:06:39;98063.84;;;13.02;100.00
10470;BME280;5282;47.052;15.458;2023-05-03T07:09:07;98061.66;;;13.05;100.00
10470;BME280;5282;47.052;15.458;2023-05-03T07:11:34;98064.50;;;13.12;100.00
10470;BME280;5282;47.052;15.458;2023-05-03T07:14:03;98060.63;;;13.15;100.00
10470;BME280;5282;47.052;15.458;2023-05-03T07:16:32;98065.00;;;13.40;100.00
10470;BME280;5282;47.052;15.458;2023-05-03T07:19:01;98058.06;;;13.38;100.00
10470;BME280;5282;47.052;15.458;2023-05-03T07:21:29;98064.19;;;13.40;100.00
10470;BME280;5282;47.052;15.458;2023-05-03T07:23:58;98067.84;;;13.55;100.00
10470;BME280;5282;47.052;15.458;2023-05-03T07:26:27;98061.47;;;13.40;100.00
10470;BME280;5282;47.052;15.458;2023-05-03T07:28:53;98064.47;;;13.45;100.00
10470;BME280;5282;47.052;15.458;2023-05-03T07:31:21;98056.34;;;13.53;100.00
10470;BME280;5282;47.052;15.458;2023-05-03T07:33:49;98059.97;;;13.77;100.00
10470;BME280;5282;47.052;15.458;2023-05-03T07:36:16;98059.81;;;14.10;100.00
10470;BME280;5282;47.052;15.458;2023-05-03T07:38:43;98053.38;;;14.19;100.00
10470;BME280;5282;47.052;15.458;2023-05-03T07:41:10;98061.56;;;14.34;100.00
10470;BME280;5282;47.052;15.458;2023-05-03T07:43:38;98064.34;;;14.49;100.00
10470;BME280;5282;47.052;15.458;2023-05-03T07:46:05;98060.41;;;14.52;100.00
10470;BME280;5282;47.052;15.458;2023-05-03T07:48:32;98059.94;;;14.48;100.00
10470;BME280;5282;47.052;15.458;2023-05-03T07:50:59;98056.78;;;14.68;100.00
10470;BME280;5282;47.052;15.458;2023-05-03T07:53:25;98059.41;;;14.53;100.00
10470;BME280;5282;47.052;15.458;2023-05-03T07:55:53;98055.78;;;14.61;100.00
10470;BME280;5282;47.052;15.458;2023-05-03T07:58:21;98054.06;;;14.68;100.00
10470;BME280;5282;47.052;15.458;2023-05-03T08:00:50;98053.81;;;14.55;100.00
10470;BME280;5282;47.052;15.458;2023-05-03T08:03:16;98057.84;;;14.59;100.00
10470;BME280;5282;47.052;15.458;2023-05-03T08:05:43;98058.78;;;14.74;100.00
10470;BME280;5282;47.052;15.458;2023-05-03T08:08:10;98063.47;;;14.80;100.00
10470;BME280;5282;47.052;15.458;2023-05-03T08:10:38;98072.19;;;14.91;100.00
10470;BME280;5282;47.052;15.458;2023-05-03T08:13:05;98062.22;;;15.06;100.00
10470;BME280;5282;47.052;15.458;2023-05-03T08:15:33;98056.94;;;15.28;100.00
10470;BME280;5282;47.052;15.458;2023-05-03T08:18:01;98063.84;;;15.16;100.00
10470;BME280;5282;47.052;15.458;2023-05-03T08:20:28;98058.56;;;14.99;100.00
10470;BME280;5282;47.052;15.458;2023-05-03T08:22:55;98065.38;;;14.95;100.00
10470;BME280;5282;47.052;15.458;2023-05-03T08:25:22;98067.47;;;15.08;100.00
10470;BME280;5282;47.052;15.458;2023-05-03T08:27:50;98068.16;;;15.25;100.00
10470;BME280;5282;47.052;15.458;2023-05-03T08:30:18;98066.06;;;15.12;100.00
10470;BME280;5282;47.052;15.458;2023-05-03T08:32:46;98067.22;;;15.18;100.00
10470;BME280;5282;47.052;15.458;2023-05-03T08:35:15;98066.31;;;15.40;100.00
10470;BME280;5282;47.052;15.458;2023-05-03T08:37:42;98061.53;;;15.57;100.00
10470;BME280;5282;47.052;15.458;2023-05-03T08:40:11;98061.75;;;15.41;100.00
10470;BME280;5282;47.052;15.458;2023-05-03T08:42:40;98069.22;;;15.54;100.00
10470;BME280;5282;47.052;15.458;2023-05-03T08:45:09;98069.31;;;15.76;100.00
10470;BME280;5282;47.052;15.458;2023-05-03T08:47:37;98062.84;;;15.77;100.00
10470;BME280;5282;47.052;15.458;2023-05-03T08:50:07;98075.31;;;15.71;100.00
10470;BME280;5282;47.052;15.458;2023-05-03T08:52:38;98069.03;;;15.70;100.00
10470;BME280;5282;47.052;15.458;2023-05-03T08:55:07;98077.38;;;15.54;100.00
10470;BME280;5282;47.052;15.458;2023-05-03T08:57:34;98076.44;;;15.77;100.00
10470;BME280;5282;47.052;15.458;2023-05-03T09:00:02;98076.06;;;15.80;100.00
10470;BME280;5282;47.052;15.458;2023-05-03T09:02:33;98078.38;;;15.68;100.00
10470;BME280;5282;47.052;15.458;2023-05-03T09:05:01;98077.25;;;15.77;100.00
10470;BME280;5282;47.052;15.458;2023-05-03T09:07:30;98076.06;;;15.80;94.59
10470;BME280;5282;47.052;15.458;2023-05-03T09:09:58;98074.00;;;15.67;93.66
10470;BME280;5282;47.052;15.458;2023-05-03T09:12:33;98073.72;;;15.62;93.38
10470;BME280;5282;47.052;15.458;2023-05-03T09:15:00;98075.31;;;15.86;100.00
10470;BME280;5282;47.052;15.458;2023-05-03T09:17:29;98077.88;;;15.87;89.92
10470;BME280;5282;47.052;15.458;2023-05-03T09:19:58;98069.72;;;15.87;86.59
10470;BME280;5282;47.052;15.458;2023-05-03T09:22:27;98069.91;;;15.86;87.62
10470;BME280;5282;47.052;15.458;2023-05-03T09:24:56;98073.66;;;15.85;86.69
10470;BME280;5282;47.052;15.458;2023-05-03T09:27:26;98076.00;;;15.88;91.37
10470;BME280;5282;47.052;15.458;2023-05-03T09:29:54;98074.59;;;15.92;90.93
10470;BME280;5282;47.052;15.458;2023-05-03T09:32:21;98077.78;;;15.96;86.18
10470;BME280;5282;47.052;15.458;2023-05-03T09:34:48;98070.00;;;15.93;83.57
10470;BME280;5282;47.052;15.458;2023-05-03T09:37:15;98074.97;;;15.89;88.79
10470;BME280;5282;47.052;15.458;2023-05-03T09:39:44;98069.41;;;15.82;81.92
10470;BME280;5282;47.052;15.458;2023-05-03T09:42:15;98070.63;;;15.80;89.32
10470;BME280;5282;47.052;15.458;2023-05-03T09:44:46;98069.16;;;15.92;90.13
10470;BME280;5282;47.052;15.458;2023-05-03T09:47:16;98073.97;;;15.82;87.54
10470;BME280;5282;47.052;15.458;2023-05-03T09:49:44;98066.44;;;15.92;78.19
10470;BME280;5282;47.052;15.458;2023-05-03T09:52:11;98067.44;;;16.06;84.96
10470;BME280;5282;47.052;15.458;2023-05-03T09:54:38;98065.41;;;15.93;76.59
10470;BME280;5282;47.052;15.458;2023-05-03T09:57:06;98065.78;;;15.90;75.06
10470;BME280;5282;47.052;15.458;2023-05-03T09:59:35;98064.72;;;16.06;76.80
10470;BME280;5282;47.052;15.458;2023-05-03T10:02:06;98063.03;;;16.05;75.47
10470;BME280;5282;47.052;15.458;2023-05-03T10:04:38;98069.78;;;16.09;78.72
10470;BME280;5282;47.052;15.458;2023-05-03T10:07:12;98073.44;;;16.01;81.90
10470;BME280;5282;47.052;15.458;2023-05-03T10:09:42;98074.47;;;16.00;84.98
10470;BME280;5282;47.052;15.458;2023-05-03T10:12:11;98074.41;;;15.94;77.90
10470;BME280;5282;47.052;15.458;2023-05-03T10:14:41;98069.34;;;15.91;85.85
10470;BME280;5282;47.052;15.458;2023-05-03T10:17:15;98077.75;;;15.81;82.64
10470;BME280;5282;47.052;15.458;2023-05-03T10:19:48;98075.56;;;15.76;87.28
10470;BME280;5282;47.052;15.458;2023-05-03T10:22:16;98077.09;;;15.79;87.32
10470;BME280;5282;47.052;15.458;2023-05-03T10:25:06;98075.19;;;15.79;83.12
10470;BME280;5282;47.052;15.458;2023-05-03T10:27:41;98068.50;;;15.90;81.77
10470;BME280;5282;47.052;15.458;2023-05-03T10:30:26;98067.44;;;15.76;84.31
10470;BME280;5282;47.052;15.458;2023-05-03T10:32:55;98064.47;;;15.86;81.65
10470;BME280;5282;47.052;15.458;2023-05-03T10:35:25;98063.41;;;16.02;87.97
10470;BME280;5282;47.052;15.458;2023-05-03T10:37:52;98065.88;;;15.97;86.81
10470;BME280;5282;47.052;15.458;2023-05-03T10:40:24;98065.13;;;15.88;82.60
10470;BME280;5282;47.052;15.458;2023-05-03T10:43:06;98061.28;;;15.97;83.04
10470;BME280;5282;47.052;15.458;2023-05-03T10:45:56;98055.19;;;15.95;75.10
10470;BME280;5282;47.052;15.458;2023-05-03T10:48:24;98057.81;;;16.03;84.15
10470;BME280;5282;47.052;15.458;2023-05-03T10:50:54;98061.72;;;16.01;77.62
10470;BME280;5282;47.052;15.458;2023-05-03T10:53:35;98056.13;;;16.02;85.91
10470;BME280;5282;47.052;15.458;2023-05-03T10:56:03;98058.56;;;15.97;76.94
10470;BME280;5282;47.052;15.458;2023-05-03T10:58:35;98056.13;;;16.02;76.95
10470;BME280;5282;47.052;15.458;2023-05-03T11:01:04;98055.31;;;16.24;76.38
10470;BME280;5282;47.052;15.458;2023-05-03T11:03:42;98059.81;;;16.31;77.65
10470;BME280;5282;47.052;15.458;2023-05-03T11:06:26;98058.63;;;16.56;71.99
10470;BME280;5282;47.052;15.458;2023-05-03T11:08:53;98058.22;;;16.59;70.22
10470;BME280;5282;47.052;15.458;2023-05-03T11:11:20;98052.06;;;16.50;75.53
10470;BME280;5282;47.052;15.458;2023-05-03T11:13:49;98062.78;;;16.37;81.12
10470;BME280;5282;47.052;15.458;2023-05-03T11:16:16;98054.78;;;16.13;81.00
10470;BME280;5282;47.052;15.458;2023-05-03T11:18:47;98059.81;;;16.31;86.86
10470;BME280;5282;47.052;15.458;2023-05-03T11:21:14;98056.56;;;16.43;99.05
10470;BME280;5282;47.052;15.458;2023-05-03T11:23:42;98063.31;;;16.47;100.00
10470;BME280;5282;47.052;15.458;2023-05-03T11:26:09;98068.88;;;16.39;100.00
10470;BME280;5282;47.052;15.458;2023-05-03T11:28:39;98071.25;;;16.27;100.00
10470;BME280;5282;47.052;15.458;2023-05-03T11:31:07;98065.19;;;16.10;100.00
10470;BME280;5282;47.052;15.458;2023-05-03T11:33:35;98067.72;;;16.11;100.00
10470;BME280;5282;47.052;15.458;2023-05-03T11:36:05;98064.81;;;16.13;100.00
10470;BME280;5282;47.052;15.458;2023-05-03T11:38:36;98063.88;;;16.21;100.00
10470;BME280;5282;47.052;15.458;2023-05-03T11:41:11;98067.44;;;16.06;100.00
10470;BME280;5282;47.052;15.458;2023-05-03T11:43:42;98068.94;;;16.09;100.00
10470;BME280;5282;47.052;15.458;2023-05-03T11:46:09;98070.53;;;16.03;100.00
10470;BME280;5282;47.052;15.458;2023-05-03T11:48:37;98064.38;;;16.09;100.00
10470;BME280;5282;47.052;15.458;2023-05-03T11:51:09;98067.66;;;16.04;100.00
10470;BME280;5282;47.052;15.458;2023-05-03T11:53:37;98071.03;;;16.28;100.00
10470;BME280;5282;47.052;15.458;2023-05-03T11:56:06;98070.28;;;16.34;100.00
10470;BME280;5282;47.052;15.458;2023-05-03T11:58:33;98062.38;;;16.40;100.00
10470;BME280;5282;47.052;15.458;2023-05-03T12:01:00;98061.25;;;16.49;100.00
10470;BME280;5282;47.052;15.458;2023-05-03T12:03:29;98070.25;;;16.49;97.38
10470;BME280;5282;47.052;15.458;2023-05-03T12:05:57;98064.34;;;16.46;99.48
10470;BME280;5282;47.052;15.458;2023-05-03T12:08:28;98064.47;;;16.38;100.00
10470;BME280;5282;47.052;15.458;2023-05-03T12:10:56;98076.22;;;16.23;100.00
10470;BME280;5282;47.052;15.458;2023-05-03T12:13:27;98076.34;;;16.00;100.00
10470;BME280;5282;47.052;15.458;2023-05-03T12:15:56;98070.25;;;16.13;100.00
10470;BME280;5282;47.052;15.458;2023-05-03T12:18:23;98066.09;;;16.17;100.00
10470;BME280;5282;47.052;15.458;2023-05-03T12:20:54;98070.66;;;16.31;100.00
10470;BME280;5282;47.052;15.458;2023-05-03T12:23:23;98071.53;;;16.17;99.93
10470;BME280;5282;47.052;15.458;2023-05-03T12:25:51;98075.84;;;16.26;100.00
10470;BME280;5282;47.052;15.458;2023-05-03T12:28:18;98078.50;;;15.89;100.00
10470;BME280;5282;47.052;15.458;2023-05-03T12:30:46;98071.31;;;15.97;100.00
10470;BME280;5282;47.052;15.458;2023-05-03T12:33:13;98074.28;;;16.02;100.00
10470;BME280;5282;47.052;15.458;2023-05-03T12:35:42;98070.34;;;15.89;100.00
10470;BME280;5282;47.052;15.458;2023-05-03T12:38:09;98068.53;;;15.82;100.00
10470;BME280;5282;47.052;15.458;2023-05-03T12:40:37;98068.38;;;15.53;100.00
10470;BME280;5282;47.052;15.458;2023-05-03T12:43:06;98072.31;;;15.51;100.00
10470;BME280;5282;47.052;15.458;2023-05-03T12:45:33;98068.38;;;15.68;100.00
10470;BME280;5282;47.052;15.458;2023-05-03T12:48:00;98070.63;;;15.80;100.00
10470;BME280;5282;47.052;15.458;2023-05-03T12:50:27;98063.78;;;15.39;100.00
10470;BME280;5282;47.052;15.458;2023-05-03T12:52:54;98065.63;;;15.23;100.00
10470;BME280;5282;47.052;15.458;2023-05-03T12:55:21;98063.69;;;15.32;100.00
10470;BME280;5282;47.052;15.458;2023-05-03T12:57:51;98059.56;;;15.36;100.00
10470;BME280;5282;47.052;15.458;2023-05-03T13:00:20;98062.81;;;15.17;100.00